Strona główna
METAR-TAF:

METAR-TAF

Lotnisko :

Port lotniczy Wientian-Wattay

Wientian, Laos

Szerokość geograficzna: 17-57N, Długość geograficzna: 102-34E, wysokość: 171 m

Aktualna obserwacja pogody

Raport powstał 18 minut temu, godzina 12:00 UTC
Wiatr 2 kt od wschód
Temperatura 27°C
Wilgotność 66%
Ciśnienie 1009 hPa
Widzialność: 4000 m
Mało chmury na wysokości 5000 ft
zamglenie

METAR: VLVT 181200Z 09002KT 4000 BR FEW050 27/20 Q1009 NOSIG

czas: 19:18 (12:18 UTC)

Prognoza

Raport powstał 1 godzina i 18 minut temu, godzina 11:00 UTC
Prognoza ważna od 18 godzina 12 UTC do 19 godzina 12 UTC
Wiatr 4 kt od wschodnio-północny wschód
Widzialność: 7000 m
Mało chmury na wysokości 2000 ft
Rozproszone chmury na wysokości 5000 ft
Przejściowo
od 18 godzina 13 UTC do 18 godzina 19 UTC
Widzialność: 4000 m
Mało chmury na wysokości 5000 ft
zamglenie

TAF: VLVT 181100Z 1812/1912 06004KT 7000 FEW020 SCT050 TEMPO 1813/1819 4000 BR FEW050

Obserwacja i prognoza pogody dla ponad 4000 lotnisk (raport METAR i TAF).

Dostępne stacje oznaczono żółtymi i czerwonymi punktami na mapie.

Najedź kursorem aby zobaczyć nazwę stacji.

Kliknij aby zobaczyć obserwacje i prognozy pogody.

Aby zmienić mapę: kliknij na zielony przycisk z czarnym krzyżykiem, aby powiększyć; na zielony przycisk z myślnikiem, aby pomniejszyć; na zielone strzałki, aby przejść do map sąsiednich.


METAR-TAF: